sensor_id;sensor_type;location;lat;lon;timestamp;P1;durP1;ratioP1;P2;durP2;ratioP2
17091;SDS011;8661;45.700;4.880;2023-06-01T00:00:52;5.53;;;4.00;;
17091;SDS011;8661;45.700;4.880;2023-06-01T00:03:21;5.97;;;4.20;;
17091;SDS011;8661;45.700;4.880;2023-06-01T00:05:51;8.17;;;4.70;;
17091;SDS011;8661;45.700;4.880;2023-06-01T00:08:18;5.40;;;4.27;;
17091;SDS011;8661;45.700;4.880;2023-06-01T00:10:46;6.60;;;4.57;;
17091;SDS011;8661;45.700;4.880;2023-06-01T00:13:13;8.97;;;4.40;;
17091;SDS011;8661;45.700;4.880;2023-06-01T00:15:40;6.17;;;4.30;;
17091;SDS011;8661;45.700;4.880;2023-06-01T00:18:08;6.50;;;5.07;;
17091;SDS011;8661;45.700;4.880;2023-06-01T00:20:37;6.27;;;4.97;;
17091;SDS011;8661;45.700;4.880;2023-06-01T00:23:05;7.67;;;5.07;;
17091;SDS011;8661;45.700;4.880;2023-06-01T00:25:31;5.77;;;4.60;;
17091;SDS011;8661;45.700;4.880;2023-06-01T00:28:00;7.27;;;5.10;;
17091;SDS011;8661;45.700;4.880;2023-06-01T00:30:27;7.17;;;4.37;;
17091;SDS011;8661;45.700;4.880;2023-06-01T00:32:54;7.90;;;4.83;;
17091;SDS011;8661;45.700;4.880;2023-06-01T00:35:21;8.43;;;5.00;;
17091;SDS011;8661;45.700;4.880;2023-06-01T00:37:48;7.57;;;4.67;;
17091;SDS011;8661;45.700;4.880;2023-06-01T00:40:15;7.83;;;4.57;;
17091;SDS011;8661;45.700;4.880;2023-06-01T00:42:41;6.60;;;4.70;;
17091;SDS011;8661;45.700;4.880;2023-06-01T00:45:10;7.23;;;5.30;;
17091;SDS011;8661;45.700;4.880;2023-06-01T00:47:38;6.10;;;4.37;;
17091;SDS011;8661;45.700;4.880;2023-06-01T00:50:07;5.70;;;4.40;;
17091;SDS011;8661;45.700;4.880;2023-06-01T00:52:35;9.43;;;4.60;;
17091;SDS011;8661;45.700;4.880;2023-06-01T00:55:04;6.23;;;4.83;;
17091;SDS011;8661;45.700;4.880;2023-06-01T00:57:31;7.63;;;4.97;;
17091;SDS011;8661;45.700;4.880;2023-06-01T00:59:59;6.83;;;4.17;;
17091;SDS011;8661;45.700;4.880;2023-06-01T01:02:37;7.53;;;4.77;;
17091;SDS011;8661;45.700;4.880;2023-06-01T01:05:05;8.03;;;5.50;;
17091;SDS011;8661;45.700;4.880;2023-06-01T01:07:37;19.03;;;5.27;;
17091;SDS011;8661;45.700;4.880;2023-06-01T01:10:13;6.37;;;4.53;;
17091;SDS011;8661;45.700;4.880;2023-06-01T01:12:50;7.33;;;4.60;;
17091;SDS011;8661;45.700;4.880;2023-06-01T01:15:23;6.13;;;4.70;;
17091;SDS011;8661;45.700;4.880;2023-06-01T01:17:58;5.93;;;4.57;;
17091;SDS011;8661;45.700;4.880;2023-06-01T01:20:28;8.23;;;4.60;;
17091;SDS011;8661;45.700;4.880;2023-06-01T01:23:06;6.13;;;4.70;;
17091;SDS011;8661;45.700;4.880;2023-06-01T01:25:52;6.43;;;5.00;;
17091;SDS011;8661;45.700;4.880;2023-06-01T01:28:42;6.87;;;5.00;;
17091;SDS011;8661;45.700;4.880;2023-06-01T01:31:13;6.83;;;4.70;;
17091;SDS011;8661;45.700;4.880;2023-06-01T01:33:44;6.50;;;4.97;;
17091;SDS011;8661;45.700;4.880;2023-06-01T01:36:12;7.03;;;5.20;;
17091;SDS011;8661;45.700;4.880;2023-06-01T01:38:39;8.30;;;5.40;;
17091;SDS011;8661;45.700;4.880;2023-06-01T01:41:06;8.90;;;5.63;;
17091;SDS011;8661;45.700;4.880;2023-06-01T01:43:33;7.27;;;5.20;;
17091;SDS011;8661;45.700;4.880;2023-06-01T01:46:05;8.13;;;5.30;;
17091;SDS011;8661;45.700;4.880;2023-06-01T01:48:39;7.63;;;5.83;;
17091;SDS011;8661;45.700;4.880;2023-06-01T01:51:16;10.77;;;5.97;;
17091;SDS011;8661;45.700;4.880;2023-06-01T01:53:48;8.53;;;5.67;;
17091;SDS011;8661;45.700;4.880;2023-06-01T01:56:18;9.20;;;5.20;;
17091;SDS011;8661;45.700;4.880;2023-06-01T01:58:46;7.80;;;5.33;;
17091;SDS011;8661;45.700;4.880;2023-06-01T02:01:15;9.93;;;5.43;;
17091;SDS011;8661;45.700;4.880;2023-06-01T02:03:43;11.07;;;5.50;;
17091;SDS011;8661;45.700;4.880;2023-06-01T02:06:10;7.80;;;5.53;;
17091;SDS011;8661;45.700;4.880;2023-06-01T02:08:37;8.90;;;6.03;;
17091;SDS011;8661;45.700;4.880;2023-06-01T02:11:04;9.17;;;6.57;;
17091;SDS011;8661;45.700;4.880;2023-06-01T02:13:31;7.97;;;5.90;;
17091;SDS011;8661;45.700;4.880;2023-06-01T02:15:58;8.97;;;6.33;;
17091;SDS011;8661;45.700;4.880;2023-06-01T02:18:26;8.83;;;6.27;;
17091;SDS011;8661;45.700;4.880;2023-06-01T02:20:54;7.37;;;5.17;;
17091;SDS011;8661;45.700;4.880;2023-06-01T02:23:22;8.37;;;5.90;;
17091;SDS011;8661;45.700;4.880;2023-06-01T02:25:49;8.17;;;5.63;;
17091;SDS011;8661;45.700;4.880;2023-06-01T02:28:16;7.63;;;5.13;;
17091;SDS011;8661;45.700;4.880;2023-06-01T02:30:43;7.03;;;5.60;;
17091;SDS011;8661;45.700;4.880;2023-06-01T02:33:10;8.20;;;6.43;;
17091;SDS011;8661;45.700;4.880;2023-06-01T02:35:39;10.00;;;7.40;;
17091;SDS011;8661;45.700;4.880;2023-06-01T02:38:06;12.10;;;7.10;;
17091;SDS011;8661;45.700;4.880;2023-06-01T02:40:33;11.40;;;6.93;;
17091;SDS011;8661;45.700;4.880;2023-06-01T02:43:00;10.53;;;7.80;;
17091;SDS011;8661;45.700;4.880;2023-06-01T02:45:27;11.10;;;8.63;;
17091;SDS011;8661;45.700;4.880;2023-06-01T02:47:54;9.03;;;6.50;;
17091;SDS011;8661;45.700;4.880;2023-06-01T02:50:20;10.50;;;6.00;;
17091;SDS011;8661;45.700;4.880;2023-06-01T02:52:49;7.83;;;5.40;;
17091;SDS011;8661;45.700;4.880;2023-06-01T02:55:16;7.77;;;5.57;;
17091;SDS011;8661;45.700;4.880;2023-06-01T02:57:42;7.43;;;4.90;;
17091;SDS011;8661;45.700;4.880;2023-06-01T03:00:10;9.17;;;5.97;;
17091;SDS011;8661;45.700;4.880;2023-06-01T03:02:42;7.33;;;5.07;;
17091;SDS011;8661;45.700;4.880;2023-06-01T03:05:09;9.03;;;5.63;;
17091;SDS011;8661;45.700;4.880;2023-06-01T03:07:39;8.77;;;5.60;;
17091;SDS011;8661;45.700;4.880;2023-06-01T03:10:08;9.83;;;5.70;;
17091;SDS011;8661;45.700;4.880;2023-06-01T03:12:35;8.47;;;5.63;;
17091;SDS011;8661;45.700;4.880;2023-06-01T03:15:03;7.23;;;4.93;;
17091;SDS011;8661;45.700;4.880;2023-06-01T03:17:31;8.63;;;5.07;;
17091;SDS011;8661;45.700;4.880;2023-06-01T03:19:58;7.47;;;5.40;;
17091;SDS011;8661;45.700;4.880;2023-06-01T03:22:25;13.00;;;5.27;;
17091;SDS011;8661;45.700;4.880;2023-06-01T03:24:52;20.83;;;6.27;;
17091;SDS011;8661;45.700;4.880;2023-06-01T03:27:21;9.77;;;5.00;;
17091;SDS011;8661;45.700;4.880;2023-06-01T03:29:48;10.90;;;6.17;;
17091;SDS011;8661;45.700;4.880;2023-06-01T03:32:15;12.17;;;5.40;;
17091;SDS011;8661;45.700;4.880;2023-06-01T03:34:41;10.20;;;5.50;;
17091;SDS011;8661;45.700;4.880;2023-06-01T03:37:08;13.37;;;5.50;;
17091;SDS011;8661;45.700;4.880;2023-06-01T03:39:35;8.33;;;5.47;;
17091;SDS011;8661;45.700;4.880;2023-06-01T03:42:04;10.57;;;5.53;;
17091;SDS011;8661;45.700;4.880;2023-06-01T03:44:33;16.97;;;6.00;;
17091;SDS011;8661;45.700;4.880;2023-06-01T03:47:00;7.53;;;5.27;;
17091;SDS011;8661;45.700;4.880;2023-06-01T03:49:27;9.37;;;5.23;;
17091;SDS011;8661;45.700;4.880;2023-06-01T03:51:54;8.63;;;5.97;;
17091;SDS011;8661;45.700;4.880;2023-06-01T03:54:21;8.80;;;5.47;;
17091;SDS011;8661;45.700;4.880;2023-06-01T03:56:49;10.57;;;5.53;;
17091;SDS011;8661;45.700;4.880;2023-06-01T03:59:16;7.43;;;5.10;;
17091;SDS011;8661;45.700;4.880;2023-06-01T04:01:45;7.53;;;5.27;;
17091;SDS011;8661;45.700;4.880;2023-06-01T04:04:13;7.17;;;5.60;;
17091;SDS011;8661;45.700;4.880;2023-06-01T04:06:41;8.33;;;5.30;;
17091;SDS011;8661;45.700;4.880;2023-06-01T04:09:10;11.63;;;5.87;;
17091;SDS011;8661;45.700;4.880;2023-06-01T04:11:38;8.87;;;6.13;;
17091;SDS011;8661;45.700;4.880;2023-06-01T04:14:05;10.20;;;5.60;;
17091;SDS011;8661;45.700;4.880;2023-06-01T04:16:32;7.27;;;5.70;;
17091;SDS011;8661;45.700;4.880;2023-06-01T04:19:01;7.97;;;5.37;;
17091;SDS011;8661;45.700;4.880;2023-06-01T04:21:28;8.33;;;5.97;;
17091;SDS011;8661;45.700;4.880;2023-06-01T04:23:55;12.50;;;5.93;;
17091;SDS011;8661;45.700;4.880;2023-06-01T04:26:22;8.80;;;5.80;;
17091;SDS011;8661;45.700;4.880;2023-06-01T04:28:49;12.03;;;6.33;;
17091;SDS011;8661;45.700;4.880;2023-06-01T04:31:16;9.63;;;6.63;;
17091;SDS011;8661;45.700;4.880;2023-06-01T04:33:44;10.47;;;5.80;;
17091;SDS011;8661;45.700;4.880;2023-06-01T04:36:19;10.40;;;5.50;;
17091;SDS011;8661;45.700;4.880;2023-06-01T04:38:47;13.40;;;6.63;;
17091;SDS011;8661;45.700;4.880;2023-06-01T04:41:16;11.97;;;6.53;;
17091;SDS011;8661;45.700;4.880;2023-06-01T04:43:45;11.03;;;6.43;;
17091;SDS011;8661;45.700;4.880;2023-06-01T04:46:16;10.90;;;6.33;;
17091;SDS011;8661;45.700;4.880;2023-06-01T04:48:43;9.00;;;6.23;;
17091;SDS011;8661;45.700;4.880;2023-06-01T04:51:12;9.17;;;6.50;;
17091;SDS011;8661;45.700;4.880;2023-06-01T04:53:43;10.00;;;6.30;;
17091;SDS011;8661;45.700;4.880;2023-06-01T04:56:10;8.83;;;6.03;;
17091;SDS011;8661;45.700;4.880;2023-06-01T04:58:37;10.57;;;6.30;;
17091;SDS011;8661;45.700;4.880;2023-06-01T05:01:04;9.80;;;6.60;;
17091;SDS011;8661;45.700;4.880;2023-06-01T05:03:31;11.67;;;6.10;;
17091;SDS011;8661;45.700;4.880;2023-06-01T05:05:58;8.37;;;6.10;;
17091;SDS011;8661;45.700;4.880;2023-06-01T05:08:25;10.60;;;6.20;;
17091;SDS011;8661;45.700;4.880;2023-06-01T05:10:53;13.97;;;6.20;;
17091;SDS011;8661;45.700;4.880;2023-06-01T05:13:20;9.33;;;6.23;;
17091;SDS011;8661;45.700;4.880;2023-06-01T05:15:47;8.20;;;5.90;;
17091;SDS011;8661;45.700;4.880;2023-06-01T05:18:14;11.37;;;6.70;;
17091;SDS011;8661;45.700;4.880;2023-06-01T05:20:41;8.83;;;6.13;;
17091;SDS011;8661;45.700;4.880;2023-06-01T05:23:08;9.33;;;6.00;;
17091;SDS011;8661;45.700;4.880;2023-06-01T05:25:35;9.90;;;6.43;;
17091;SDS011;8661;45.700;4.880;2023-06-01T05:28:03;11.70;;;6.50;;
17091;SDS011;8661;45.700;4.880;2023-06-01T05:30:30;10.00;;;7.00;;
17091;SDS011;8661;45.700;4.880;2023-06-01T05:32:57;10.37;;;6.53;;
17091;SDS011;8661;45.700;4.880;2023-06-01T05:35:24;10.47;;;6.07;;
17091;SDS011;8661;45.700;4.880;2023-06-01T05:37:51;9.87;;;6.97;;
17091;SDS011;8661;45.700;4.880;2023-06-01T05:40:18;8.97;;;6.40;;
17091;SDS011;8661;45.700;4.880;2023-06-01T05:42:45;8.93;;;6.87;;
17091;SDS011;8661;45.700;4.880;2023-06-01T05:45:13;9.87;;;6.60;;
17091;SDS011;8661;45.700;4.880;2023-06-01T05:47:40;9.20;;;6.10;;
17091;SDS011;8661;45.700;4.880;2023-06-01T05:50:07;10.03;;;6.53;;
17091;SDS011;8661;45.700;4.880;2023-06-01T05:52:34;15.20;;;7.20;;
17091;SDS011;8661;45.700;4.880;2023-06-01T05:55:01;10.93;;;6.80;;
17091;SDS011;8661;45.700;4.880;2023-06-01T05:57:29;16.10;;;6.33;;
17091;SDS011;8661;45.700;4.880;2023-06-01T05:59:55;13.00;;;6.50;;
17091;SDS011;8661;45.700;4.880;2023-06-01T06:02:24;8.90;;;5.77;;
17091;SDS011;8661;45.700;4.880;2023-06-01T06:04:51;10.50;;;5.80;;
17091;SDS011;8661;45.700;4.880;2023-06-01T06:07:18;12.30;;;6.93;;
17091;SDS011;8661;45.700;4.880;2023-06-01T06:09:44;11.40;;;7.00;;
17091;SDS011;8661;45.700;4.880;2023-06-01T06:12:11;13.70;;;7.00;;
17091;SDS011;8661;45.700;4.880;2023-06-01T06:14:38;11.10;;;7.43;;
17091;SDS011;8661;45.700;4.880;2023-06-01T06:17:05;10.60;;;6.63;;
17091;SDS011;8661;45.700;4.880;2023-06-01T06:19:34;10.50;;;7.33;;
17091;SDS011;8661;45.700;4.880;2023-06-01T06:22:03;9.17;;;6.47;;
17091;SDS011;8661;45.700;4.880;2023-06-01T06:24:30;8.33;;;6.37;;
17091;SDS011;8661;45.700;4.880;2023-06-01T06:26:57;10.03;;;6.97;;
17091;SDS011;8661;45.700;4.880;2023-06-01T06:29:24;10.57;;;6.13;;
17091;SDS011;8661;45.700;4.880;2023-06-01T06:31:51;9.53;;;5.87;;
17091;SDS011;8661;45.700;4.880;2023-06-01T06:34:18;11.63;;;6.80;;
17091;SDS011;8661;45.700;4.880;2023-06-01T06:36:46;10.77;;;6.70;;
17091;SDS011;8661;45.700;4.880;2023-06-01T06:39:14;7.23;;;6.03;;
17091;SDS011;8661;45.700;4.880;2023-06-01T06:41:41;12.60;;;6.80;;
17091;SDS011;8661;45.700;4.880;2023-06-01T06:44:08;8.50;;;6.83;;
17091;SDS011;8661;45.700;4.880;2023-06-01T06:46:35;7.90;;;6.37;;
17091;SDS011;8661;45.700;4.880;2023-06-01T06:49:02;9.23;;;6.40;;
17091;SDS011;8661;45.700;4.880;2023-06-01T06:51:29;12.37;;;6.30;;
17091;SDS011;8661;45.700;4.880;2023-06-01T06:53:57;11.70;;;6.63;;
17091;SDS011;8661;45.700;4.880;2023-06-01T06:56:27;12.93;;;6.97;;
17091;SDS011;8661;45.700;4.880;2023-06-01T06:58:54;9.27;;;6.73;;
17091;SDS011;8661;45.700;4.880;2023-06-01T07:01:21;12.77;;;6.53;;
17091;SDS011;8661;45.700;4.880;2023-06-01T07:03:50;10.60;;;7.13;;
17091;SDS011;8661;45.700;4.880;2023-06-01T07:06:17;10.17;;;6.73;;
17091;SDS011;8661;45.700;4.880;2023-06-01T07:08:45;12.43;;;6.33;;
17091;SDS011;8661;45.700;4.880;2023-06-01T07:11:13;10.97;;;6.87;;
17091;SDS011;8661;45.700;4.880;2023-06-01T07:13:40;14.63;;;6.50;;
17091;SDS011;8661;45.700;4.880;2023-06-01T07:16:07;13.53;;;6.50;;
17091;SDS011;8661;45.700;4.880;2023-06-01T07:18:34;10.50;;;6.10;;
17091;SDS011;8661;45.700;4.880;2023-06-01T07:21:01;8.80;;;6.20;;
17091;SDS011;8661;45.700;4.880;2023-06-01T07:23:28;10.50;;;5.73;;
17091;SDS011;8661;45.700;4.880;2023-06-01T07:25:55;7.23;;;6.20;;
17091;SDS011;8661;45.700;4.880;2023-06-01T07:28:23;8.87;;;6.27;;
17091;SDS011;8661;45.700;4.880;2023-06-01T07:30:52;8.30;;;6.03;;
17091;SDS011;8661;45.700;4.880;2023-06-01T07:33:19;8.40;;;5.70;;
17091;SDS011;8661;45.700;4.880;2023-06-01T07:35:47;8.83;;;5.77;;
17091;SDS011;8661;45.700;4.880;2023-06-01T07:38:17;11.07;;;6.00;;
17091;SDS011;8661;45.700;4.880;2023-06-01T07:40:45;10.80;;;6.50;;
17091;SDS011;8661;45.700;4.880;2023-06-01T07:43:11;9.87;;;5.90;;
17091;SDS011;8661;45.700;4.880;2023-06-01T07:45:40;13.27;;;6.50;;
17091;SDS011;8661;45.700;4.880;2023-06-01T07:48:07;12.13;;;6.40;;
17091;SDS011;8661;45.700;4.880;2023-06-01T07:50:34;13.13;;;5.70;;
17091;SDS011;8661;45.700;4.880;2023-06-01T07:53:01;9.07;;;6.23;;
17091;SDS011;8661;45.700;4.880;2023-06-01T07:55:29;9.17;;;6.53;;
17091;SDS011;8661;45.700;4.880;2023-06-01T07:57:56;12.43;;;5.83;;
17091;SDS011;8661;45.700;4.880;2023-06-01T08:00:23;9.00;;;6.40;;
17091;SDS011;8661;45.700;4.880;2023-06-01T08:02:52;7.97;;;5.67;;
17091;SDS011;8661;45.700;4.880;2023-06-01T08:05:19;9.30;;;5.87;;
17091;SDS011;8661;45.700;4.880;2023-06-01T08:07:47;11.87;;;5.83;;
17091;SDS011;8661;45.700;4.880;2023-06-01T08:10:14;15.60;;;6.43;;
17091;SDS011;8661;45.700;4.880;2023-06-01T08:12:41;11.80;;;6.50;;
17091;SDS011;8661;45.700;4.880;2023-06-01T08:15:09;10.80;;;6.50;;
17091;SDS011;8661;45.700;4.880;2023-06-01T08:17:36;18.80;;;6.10;;
17091;SDS011;8661;45.700;4.880;2023-06-01T08:20:07;8.87;;;5.53;;
17091;SDS011;8661;45.700;4.880;2023-06-01T08:22:37;9.83;;;6.00;;
17091;SDS011;8661;45.700;4.880;2023-06-01T08:25:04;11.80;;;6.20;;
17091;SDS011;8661;45.700;4.880;2023-06-01T08:27:32;7.80;;;5.43;;
17091;SDS011;8661;45.700;4.880;2023-06-01T08:29:59;8.53;;;5.63;;
17091;SDS011;8661;45.700;4.880;2023-06-01T08:32:26;9.67;;;6.17;;
17091;SDS011;8661;45.700;4.880;2023-06-01T08:34:53;7.63;;;5.47;;
17091;SDS011;8661;45.700;4.880;2023-06-01T08:37:21;8.23;;;5.83;;
17091;SDS011;8661;45.700;4.880;2023-06-01T08:39:48;11.07;;;5.60;;
17091;SDS011;8661;45.700;4.880;2023-06-01T08:42:17;10.10;;;5.90;;
17091;SDS011;8661;45.700;4.880;2023-06-01T08:44:50;13.83;;;6.00;;
17091;SDS011;8661;45.700;4.880;2023-06-01T08:47:20;9.03;;;6.20;;
17091;SDS011;8661;45.700;4.880;2023-06-01T08:49:50;11.03;;;6.10;;
17091;SDS011;8661;45.700;4.880;2023-06-01T08:52:19;10.97;;;6.43;;
17091;SDS011;8661;45.700;4.880;2023-06-01T08:54:48;11.77;;;6.23;;
17091;SDS011;8661;45.700;4.880;2023-06-01T08:57:15;13.13;;;5.80;;
17091;SDS011;8661;45.700;4.880;2023-06-01T08:59:43;9.27;;;5.20;;
17091;SDS011;8661;45.700;4.880;2023-06-01T09:02:12;10.88;;;5.50;;
17091;SDS011;8661;45.700;4.880;2023-06-01T09:04:40;9.07;;;5.75;;
17091;SDS011;8661;45.700;4.880;2023-06-01T09:07:09;8.20;;;4.90;;
17091;SDS011;8661;45.700;4.880;2023-06-01T09:09:38;9.18;;;4.95;;
17091;SDS011;8661;45.700;4.880;2023-06-01T09:12:18;6.38;;;5.10;;
17091;SDS011;8661;45.700;4.880;2023-06-01T09:14:47;10.50;;;5.57;;
17091;SDS011;8661;45.700;4.880;2023-06-01T09:17:14;8.43;;;5.15;;
17091;SDS011;8661;45.700;4.880;2023-06-01T09:19:47;8.73;;;5.10;;
17091;SDS011;8661;45.700;4.880;2023-06-01T09:22:16;8.75;;;5.35;;
17091;SDS011;8661;45.700;4.880;2023-06-01T09:24:48;6.28;;;4.97;;
17091;SDS011;8661;45.700;4.880;2023-06-01T09:27:22;8.85;;;4.78;;
17091;SDS011;8661;45.700;4.880;2023-06-01T09:29:52;7.05;;;4.55;;
17091;SDS011;8661;45.700;4.880;2023-06-01T09:32:20;8.75;;;4.88;;
17091;SDS011;8661;45.700;4.880;2023-06-01T09:34:47;9.63;;;5.55;;
17091;SDS011;8661;45.700;4.880;2023-06-01T09:37:14;8.43;;;4.70;;
17091;SDS011;8661;45.700;4.880;2023-06-01T09:39:42;8.38;;;4.78;;
17091;SDS011;8661;45.700;4.880;2023-06-01T09:42:10;6.85;;;4.85;;
17091;SDS011;8661;45.700;4.880;2023-06-01T09:44:37;9.00;;;4.63;;
17091;SDS011;8661;45.700;4.880;2023-06-01T09:47:06;6.80;;;4.47;;
17091;SDS011;8661;45.700;4.880;2023-06-01T09:49:36;11.10;;;4.65;;
17091;SDS011;8661;45.700;4.880;2023-06-01T09:52:08;8.25;;;4.47;;
17091;SDS011;8661;45.700;4.880;2023-06-01T09:54:40;10.48;;;4.50;;
17091;SDS011;8661;45.700;4.880;2023-06-01T09:57:10;9.00;;;4.93;;
17091;SDS011;8661;45.700;4.880;2023-06-01T09:59:38;10.45;;;4.60;;
17091;SDS011;8661;45.700;4.880;2023-06-01T10:02:08;7.72;;;4.18;;
17091;SDS011;8661;45.700;4.880;2023-06-01T10:04:39;6.18;;;4.22;;
17091;SDS011;8661;45.700;4.880;2023-06-01T10:07:07;8.98;;;3.95;;
17091;SDS011;8661;45.700;4.880;2023-06-01T10:09:36;10.98;;;4.13;;
17091;SDS011;8661;45.700;4.880;2023-06-01T10:12:07;6.75;;;3.70;;
17091;SDS011;8661;45.700;4.880;2023-06-01T10:14:37;9.88;;;4.20;;
17091;SDS011;8661;45.700;4.880;2023-06-01T10:17:04;7.53;;;3.65;;
17091;SDS011;8661;45.700;4.880;2023-06-01T10:19:32;6.13;;;3.60;;
17091;SDS011;8661;45.700;4.880;2023-06-01T10:22:01;6.43;;;4.05;;
17091;SDS011;8661;45.700;4.880;2023-06-01T10:24:29;4.53;;;3.85;;
17091;SDS011;8661;45.700;4.880;2023-06-01T10:26:59;5.43;;;3.38;;
17091;SDS011;8661;45.700;4.880;2023-06-01T10:29:31;6.43;;;3.38;;
17091;SDS011;8661;45.700;4.880;2023-06-01T10:32:00;5.78;;;3.42;;
17091;SDS011;8661;45.700;4.880;2023-06-01T10:34:37;5.20;;;3.50;;
17091;SDS011;8661;45.700;4.880;2023-06-01T10:37:11;6.30;;;3.85;;
17091;SDS011;8661;45.700;4.880;2023-06-01T10:39:41;4.65;;;3.25;;
17091;SDS011;8661;45.700;4.880;2023-06-01T10:45:03;5.22;;;3.70;;
17091;SDS011;8661;45.700;4.880;2023-06-01T10:47:46;7.22;;;3.40;;
17091;SDS011;8661;45.700;4.880;2023-06-01T10:50:14;4.80;;;3.63;;
17091;SDS011;8661;45.700;4.880;2023-06-01T10:52:42;5.53;;;3.83;;
17091;SDS011;8661;45.700;4.880;2023-06-01T10:55:22;8.02;;;3.83;;
17091;SDS011;8661;45.700;4.880;2023-06-01T11:00:46;5.75;;;3.88;;
17091;SDS011;8661;45.700;4.880;2023-06-01T11:03:15;5.28;;;3.38;;
17091;SDS011;8661;45.700;4.880;2023-06-01T11:06:02;9.27;;;4.00;;
17091;SDS011;8661;45.700;4.880;2023-06-01T11:08:51;7.00;;;3.85;;
17091;SDS011;8661;45.700;4.880;2023-06-01T11:11:20;9.50;;;3.33;;
17091;SDS011;8661;45.700;4.880;2023-06-01T11:16:33;5.70;;;3.80;;
17091;SDS011;8661;45.700;4.880;2023-06-01T11:19:02;9.13;;;4.22;;
17091;SDS011;8661;45.700;4.880;2023-06-01T11:21:32;8.90;;;3.85;;
17091;SDS011;8661;45.700;4.880;2023-06-01T11:24:04;15.18;;;3.50;;
17091;SDS011;8661;45.700;4.880;2023-06-01T11:26:34;3.17;;;2.88;;
17091;SDS011;8661;45.700;4.880;2023-06-01T11:29:12;4.35;;;2.90;;
17091;SDS011;8661;45.700;4.880;2023-06-01T11:31:43;5.68;;;3.65;;
17091;SDS011;8661;45.700;4.880;2023-06-01T11:34:13;5.43;;;3.50;;
17091;SDS011;8661;45.700;4.880;2023-06-01T11:36:42;4.45;;;3.10;;
17091;SDS011;8661;45.700;4.880;2023-06-01T11:39:19;5.22;;;3.10;;
17091;SDS011;8661;45.700;4.880;2023-06-01T11:41:48;4.22;;;3.20;;
17091;SDS011;8661;45.700;4.880;2023-06-01T11:44:16;4.22;;;2.92;;
17091;SDS011;8661;45.700;4.880;2023-06-01T11:46:49;3.75;;;3.42;;
17091;SDS011;8661;45.700;4.880;2023-06-01T11:49:22;3.72;;;3.08;;
17091;SDS011;8661;45.700;4.880;2023-06-01T11:51:49;3.30;;;3.00;;
17091;SDS011;8661;45.700;4.880;2023-06-01T11:54:21;9.90;;;3.00;;
17091;SDS011;8661;45.700;4.880;2023-06-01T11:56:49;3.25;;;2.92;;
17091;SDS011;8661;45.700;4.880;2023-06-01T11:59:17;2.63;;;2.42;;
17091;SDS011;8661;45.700;4.880;2023-06-01T12:01:45;3.20;;;2.70;;
17091;SDS011;8661;45.700;4.880;2023-06-01T12:04:12;5.80;;;2.88;;
17091;SDS011;8661;45.700;4.880;2023-06-01T12:06:41;3.20;;;2.90;;
17091;SDS011;8661;45.700;4.880;2023-06-01T12:09:08;7.72;;;3.40;;
17091;SDS011;8661;45.700;4.880;2023-06-01T12:11:36;5.00;;;3.00;;
17091;SDS011;8661;45.700;4.880;2023-06-01T12:14:03;5.32;;;3.03;;
17091;SDS011;8661;45.700;4.880;2023-06-01T12:19:30;4.22;;;2.90;;
17091;SDS011;8661;45.700;4.880;2023-06-01T12:21:58;4.28;;;2.92;;
17091;SDS011;8661;45.700;4.880;2023-06-01T12:24:25;3.60;;;2.75;;
17091;SDS011;8661;45.700;4.880;2023-06-01T12:26:54;6.22;;;3.40;;
17091;SDS011;8661;45.700;4.880;2023-06-01T12:29:35;3.63;;;3.13;;
17091;SDS011;8661;45.700;4.880;2023-06-01T12:32:03;2.60;;;2.40;;
17091;SDS011;8661;45.700;4.880;2023-06-01T12:34:31;4.57;;;3.00;;
17091;SDS011;8661;45.700;4.880;2023-06-01T12:36:59;6.82;;;2.90;;
17091;SDS011;8661;45.700;4.880;2023-06-01T12:39:36;6.15;;;3.10;;
17091;SDS011;8661;45.700;4.880;2023-06-01T12:42:05;3.17;;;2.88;;
17091;SDS011;8661;45.700;4.880;2023-06-01T12:44:32;2.88;;;2.53;;
17091;SDS011;8661;45.700;4.880;2023-06-01T12:46:59;6.22;;;3.33;;
17091;SDS011;8661;45.700;4.880;2023-06-01T12:49:27;4.75;;;3.30;;
17091;SDS011;8661;45.700;4.880;2023-06-01T12:51:54;3.78;;;3.47;;
17091;SDS011;8661;45.700;4.880;2023-06-01T12:54:23;3.92;;;3.40;;
17091;SDS011;8661;45.700;4.880;2023-06-01T12:56:50;5.03;;;3.00;;
17091;SDS011;8661;45.700;4.880;2023-06-01T12:59:17;6.30;;;4.00;;
17091;SDS011;8661;45.700;4.880;2023-06-01T13:01:44;5.05;;;3.40;;
17091;SDS011;8661;45.700;4.880;2023-06-01T13:04:11;4.30;;;3.20;;
17091;SDS011;8661;45.700;4.880;2023-06-01T13:06:38;5.40;;;4.10;;
17091;SDS011;8661;45.700;4.880;2023-06-01T13:09:06;5.57;;;3.90;;
17091;SDS011;8661;45.700;4.880;2023-06-01T13:11:34;5.85;;;3.72;;
17091;SDS011;8661;45.700;4.880;2023-06-01T13:14:01;4.22;;;2.80;;
17091;SDS011;8661;45.700;4.880;2023-06-01T13:16:28;4.60;;;3.33;;
17091;SDS011;8661;45.700;4.880;2023-06-01T13:18:55;4.15;;;3.28;;
17091;SDS011;8661;45.700;4.880;2023-06-01T13:21:22;3.67;;;3.30;;
17091;SDS011;8661;45.700;4.880;2023-06-01T13:23:49;4.63;;;3.72;;
17091;SDS011;8661;45.700;4.880;2023-06-01T13:26:16;8.50;;;5.50;;
17091;SDS011;8661;45.700;4.880;2023-06-01T13:28:45;5.90;;;4.90;;
17091;SDS011;8661;45.700;4.880;2023-06-01T13:31:12;3.88;;;3.20;;
17091;SDS011;8661;45.700;4.880;2023-06-01T13:33:38;5.22;;;3.58;;
17091;SDS011;8661;45.700;4.880;2023-06-01T13:36:05;9.75;;;4.07;;
17091;SDS011;8661;45.700;4.880;2023-06-01T13:38:32;3.95;;;3.55;;
17091;SDS011;8661;45.700;4.880;2023-06-01T13:40:59;5.70;;;3.45;;
17091;SDS011;8661;45.700;4.880;2023-06-01T13:43:26;9.73;;;4.88;;
17091;SDS011;8661;45.700;4.880;2023-06-01T13:45:54;7.03;;;4.65;;
17091;SDS011;8661;45.700;4.880;2023-06-01T13:48:21;3.95;;;3.35;;
17091;SDS011;8661;45.700;4.880;2023-06-01T13:50:48;4.03;;;3.33;;
17091;SDS011;8661;45.700;4.880;2023-06-01T13:53:16;7.63;;;3.50;;
17091;SDS011;8661;45.700;4.880;2023-06-01T13:55:43;3.88;;;3.38;;
17091;SDS011;8661;45.700;4.880;2023-06-01T13:58:11;4.88;;;3.53;;
17091;SDS011;8661;45.700;4.880;2023-06-01T14:00:37;3.25;;;2.95;;
17091;SDS011;8661;45.700;4.880;2023-06-01T14:03:06;3.42;;;3.13;;
17091;SDS011;8661;45.700;4.880;2023-06-01T14:05:33;15.30;;;4.07;;
17091;SDS011;8661;45.700;4.880;2023-06-01T14:08:00;7.32;;;3.53;;
17091;SDS011;8661;45.700;4.880;2023-06-01T14:10:29;4.72;;;2.97;;
17091;SDS011;8661;45.700;4.880;2023-06-01T14:12:56;6.05;;;3.30;;
17091;SDS011;8661;45.700;4.880;2023-06-01T14:15:23;4.68;;;3.50;;
17091;SDS011;8661;45.700;4.880;2023-06-01T14:17:50;3.42;;;3.03;;
17091;SDS011;8661;45.700;4.880;2023-06-01T14:20:18;8.25;;;3.13;;
17091;SDS011;8661;45.700;4.880;2023-06-01T14:22:45;7.22;;;3.40;;
17091;SDS011;8661;45.700;4.880;2023-06-01T14:25:12;3.92;;;2.90;;
17091;SDS011;8661;45.700;4.880;2023-06-01T14:27:39;5.75;;;3.33;;
17091;SDS011;8661;45.700;4.880;2023-06-01T14:30:07;6.28;;;3.30;;
17091;SDS011;8661;45.700;4.880;2023-06-01T14:32:34;3.53;;;2.95;;
17091;SDS011;8661;45.700;4.880;2023-06-01T14:35:01;4.82;;;3.28;;
17091;SDS011;8661;45.700;4.880;2023-06-01T14:37:29;3.33;;;3.03;;
17091;SDS011;8661;45.700;4.880;2023-06-01T14:39:57;9.52;;;3.55;;
17091;SDS011;8661;45.700;4.880;2023-06-01T14:42:24;6.95;;;3.60;;
17091;SDS011;8661;45.700;4.880;2023-06-01T14:44:51;4.78;;;3.28;;
17091;SDS011;8661;45.700;4.880;2023-06-01T14:47:18;4.72;;;3.30;;
17091;SDS011;8661;45.700;4.880;2023-06-01T14:49:44;4.43;;;3.22;;
17091;SDS011;8661;45.700;4.880;2023-06-01T14:52:11;4.13;;;2.92;;
17091;SDS011;8661;45.700;4.880;2023-06-01T14:54:40;6.85;;;3.72;;
17091;SDS011;8661;45.700;4.880;2023-06-01T14:57:07;3.50;;;3.08;;
17091;SDS011;8661;45.700;4.880;2023-06-01T14:59:33;17.42;;;3.70;;
17091;SDS011;8661;45.700;4.880;2023-06-01T15:02:01;6.85;;;3.55;;
17091;SDS011;8661;45.700;4.880;2023-06-01T15:04:28;5.47;;;3.90;;
17091;SDS011;8661;45.700;4.880;2023-06-01T15:06:55;4.28;;;3.25;;
17091;SDS011;8661;45.700;4.880;2023-06-01T15:09:22;8.48;;;3.45;;
17091;SDS011;8661;45.700;4.880;2023-06-01T15:11:50;5.95;;;2.97;;
17091;SDS011;8661;45.700;4.880;2023-06-01T15:14:17;6.18;;;2.97;;
17091;SDS011;8661;45.700;4.880;2023-06-01T15:16:45;7.50;;;3.15;;